Main page
METAR-TAF:

METAR-TAF

Airports :

Bournemouth Airport

Bournemouth, England

latitude: 50-47N, longitude: 001-50W, elevation: 11 m

Current weather observation

The report was made 3 hours and 32 minutes ago, at 18:50 UTC
Wind 12 kt from the North
Temperature 5°C
Humidity 60%
Pressure 1024 hPa
Visibility 10 km or more
Few clouds at a height of 4000 ft, Cumulonimbus.
showers in vicinity

METAR: EGHH 111850Z 36012KT 9999 VCSH FEW040CB 05/M02 Q1024

Time: 23:22 (22:22 UTC)

Forecast

The report was made 5 hours and 22 minutes ago, at 17:00 UTC
Forecast valid from 11 at 18 UTC to 11 at 21 UTC
Wind 6 kt from the Northwest
Visibility 10 km or more
Few clouds at a height of 4000 ft
Probability 40% :
Temporary
from 11 at 18 UTC to 11 at 21 UTC
Visibility: 7000 m
Broken clouds at a height of 1400 ft
rain showers

TAF: EGHH 111700Z 1118/1121 31006KT 9999 FEW040 PROB40 TEMPO 1118/1121 7000 SHRA BKN014

Weather observations and forecasts of more than 4000 airports (METAR and TAF reports).

The available stations are represented by yellow and red dots on the map.

Hover mouse over dot to see the name of the station.

Then click to see weather observations and forecasts.

To change the map : click on the green buttons with a black cross to zoom in, on the green button with a dash to zoom out, or on the green arrows for adjacent maps.


METAR-TAF: